ETSL

Lechfeld Airbase

Airport
ICAO code
ETSL
Summary
ICAO Region
EUR
ICAO Territory
Location

Lagerlechfeld, Bavaria,

Coordinates
48° 11' 10" N , 10° 51' 42" E
Metar
ETSL 190520Z 20009KT 9999 VCSH FEW030 BKN060 BKN120 03/01 Q1017 BLU

Description

Lechfeld Air Base is a German Air Force base located 1 km east of Lagerlechfeld in Bavaria.

Runways

Designator Length Width Surface Rops
3/21 2442 30 CON No/No

Airport map

Aerial View

SKYbrary Partners:

Safety knowledge contributed by: